AirNav   Everest Fuels
 
 505 users online  

14AL Highbluff Army Heliport
Fort Rucker/Hartford, Alabama, USA

GOING TO FORT RUCKER/HARTFORD?


FAA INFORMATION EFFECTIVE 08 SEPTEMBER 2022

Location

FAA Identifier: 14AL
Lat/Long: 31-09-12.7400N 085-44-01.2500W
31-09.212333N 085-44.020833W
31.1535389,-85.7336806
(estimated)
Elevation: 270 ft. / 82 m (estimated)
Variation: 02W (2000)
From city: 4 miles NW of central business district of the associated city
Time zone: UTC -5 (UTC -6 during Standard Time)
Zip code: 36344

Heliport Operations

Heliport use: Private use. Permission required prior to landing
Activation date: 05/2002
Control tower: no
ARTCC: JACKSONVILLE CENTER
FSS: ANNISTON FLIGHT SERVICE STATION
NOTAMs facility: OZR (NOTAM-D service available)
Attendance: ATTENDED DURG SKED TRNG
FOR TRNG SKED DAYS/HRS CTC AT&A OFFICER AT 334-255-9764.
Segmented circle: no

Heliport Communications

OPS: 126.2
WX AWOS-3PT at EDN (12 nm NW): 118.9 (334-347-3524)
WX ASOS at DHN (18 nm NE): PHONE 334-983-5999
WX ASOS at BCR (20 nm S): 119.825 (850-547-1431)

Nearby radio navigation aids

VOR radial/distance  VOR name  Freq  Var
OZRr186/6.9CAIRNS VOR/DME111.2003W
EDNr138/(12.2)ENTERPRISE VOR116.6003W
HEYr200/(13.9)HANCHEY VOR110.6003W
RRSr241/17.4WIREGRASS VORTAC111.6002E
MAIr305/38.3MARIANNA VORTAC114.0000E

 
NDB name  Hdg/Dist  Freq  Var  ID
RUCKR139/6.021203WOZ --- --..
LOWE181/12.526903WLOR .-.. --- .-.
HANCHEY200/14.022103WHYE .... -.-- .
BOLL WEEVIL134/16.935203WBVG -... ...- --.
SOYYA305/31.132902WSMY ... -- -.--
JUDD107/34.926402WJUY .--- ..- -.--

Heliport Services

Runway Information

Helipad H1

Dimensions: 1600 x 75 ft. / 488 x 23 m
Surface: asphalt
Traffic pattern: leftleft

Helipad H2

Dimensions: 1600 x 75 ft. / 488 x 23 m
Surface: asphalt
Traffic pattern: leftleft

Helipad H3

Dimensions: 1600 x 75 ft. / 488 x 23 m
Surface: asphalt
Traffic pattern: leftleft

Helipad H4

Dimensions: 1600 x 75 ft. / 488 x 23 m
Surface: asphalt
Traffic pattern: leftleft

Helipad H5

Dimensions: 1600 x 75 ft. / 488 x 23 m
Surface: asphalt
Traffic pattern: leftleft

Heliport Ownership and Management from official FAA records

Ownership: U.S. Army
Owner: US ARMY AVIATION CTR & FORT RUCKER
NOVOSEL ST
FORT RUCKER, AL 36362
Phone 334-255-9764
Manager: JACK A HOLMES
USAACE G3 AIR,
FORT RUCKER, AL 36362
Phone 334-255-9764

Additional Remarks

FOR CD CTC CAIRNS APCH AT 334-255-8402 OR 334-255-8460, WHEN APCH CLSD CTC JACKSONVILLE ARTCC AT 904-845-1592.

Instrument Procedures

There are no published instrument procedures at 14AL.

Some nearby airports with instrument procedures:

KOZR - Cairns Army Airfield (Fort Rucker) (7 nm N)
33J - Geneva Municipal Airport (9 nm SW)
KLOR - Lowe Army Heliport (Fort Rucker) (12 nm N)
KEDN - Enterprise Municipal Airport (12 nm NW)
KHEY - Hanchey Army Heliport (Fort Rucker) (13 nm N)
71J - Ozark/Blackwell Field Airport (18 nm N)
KDHN - Dothan Regional Airport (18 nm NE)
KBCR - Tri-County Airport (20 nm S)
 
Loc | Ops | Rwys | IFR | FBO | Links
Com | Nav | Svcs | Stats | Notes
Area around 14AL (Highbluff Army Heliport)
 
Road maps at: MapQuest Bing Google
 
Aerial photo
No photo
 
Sectional chart

 
Airport distance calculator
Flying to Highbluff Army Heliport? Find the distance to fly.

From to 14AL

Sunrise and sunset
Times for 02-Oct-2022
 Local
(UTC-5)
 Zulu
(UTC)
Morning civil twilight06:1411:14
Sunrise06:3811:38
Sunset18:2623:26
Evening civil twilight18:5123:51

Current date and time
Zulu (UTC)  02-Oct-2022 05:02:37
Local (UTC-5)  02-Oct-2022 00:02:37
 
METAR
KOZR 
8nm N 
020455Z AUTO 33008KT 10SM CLR 18/06 A2994 RMK AO2 SLP139 T01810063 $
KLOR 
12nm N 
020455Z AUTO 00000KT 10SM CLR 12/10 A2995 RMK AO2 SLP124 T01210102 $
KEDN 
12nm NW 
020455Z AUTO 35004KT 10SM CLR 17/07 A2995 RMK AO2 T01700074 402770120
KHEY 
12nm N 
020455Z AUTO 34006KT 9SM CLR 18/08 A2993 RMK AO2 SLP135 T01750081
KSXS 
14nm NW 
020455Z AUTO 35005KT 10SM CLR 18/07 A2994 RMK AO2 SLP138 T01840072 TSNO $
KDHN 
18nm NE 
020453Z AUTO 35007KT 10SM CLR 17/07 A2998 RMK AO2 SLP149 T01720067 403000111
KBCR 
20nm S 
020358Z AUTO 00000KT 10SM CLR 14/11 A2996 RMK AO2 SLP102 T01390111 $
TAF
KDHN 
18nm NE 
011722Z 0118/0218 31010KT P6SM SKC FM020200 VRB03KT P6SM SKC FM021400 34007KT P6SM SKC
NOTAMs
Click for the latest NOTAMs
NOTAMs are issued by the DoD/FAA and will open in a separate window not controlled by AirNav.

 

 
 

Would you like to see your business listed on this page?

 If your business provides an interesting product or service to pilots, flight crews, aircraft, or users of the Highbluff Army Heliport, you should consider listing it here.  To start the listing process, click on the button below
 
Add a business
 

Other Pages about Highbluff Army Heliport

Update a link
 
Copyright © AirNav, LLC. All rights reserved. Privacy Policy  Contact